createdAt,value
2023-09-29T00:03:52.850Z,52.6
2023-09-29T00:09:59.423Z,52.7
2023-09-29T00:16:05.407Z,52.7
2023-09-29T00:22:11.747Z,52.6
2023-09-29T00:28:18.134Z,52.5
2023-09-29T00:34:24.519Z,52.5
2023-09-29T00:40:30.922Z,52.4
2023-09-29T00:46:37.307Z,52.4
2023-09-29T00:52:43.292Z,52.3
2023-09-29T00:58:49.477Z,52.3
2023-09-29T01:04:55.870Z,52.3
2023-09-29T01:11:02.066Z,52.3
2023-09-29T01:17:11.331Z,52.2
2023-09-29T01:23:17.317Z,52.2
2023-09-29T01:29:23.545Z,52.1
2023-09-29T01:35:29.818Z,52.2
2023-09-29T01:41:36.340Z,52.2
2023-09-29T01:47:42.776Z,52.5
2023-09-29T01:53:48.880Z,52.3
2023-09-29T01:59:55.321Z,52.3
2023-09-29T02:06:01.699Z,52.2
2023-09-29T02:12:07.905Z,52.2
2023-09-29T02:18:15.153Z,52.1
2023-09-29T02:24:21.450Z,52.3
2023-09-29T02:30:27.635Z,52.1
2023-09-29T02:36:34.222Z,52.1
2023-09-29T02:42:40.007Z,52
2023-09-29T02:48:46.469Z,52.1
2023-09-29T02:54:52.578Z,51.8
2023-09-29T03:00:59.041Z,52
2023-09-29T03:07:05.013Z,52.1
2023-09-29T03:13:11.339Z,52.1
2023-09-29T03:19:17.745Z,52
2023-09-29T03:25:24.130Z,52
2023-09-29T03:31:30.112Z,52
2023-09-29T03:37:36.531Z,52
2023-09-29T03:43:42.709Z,52
2023-09-29T03:49:48.895Z,52.1
2023-09-29T03:55:54.864Z,52
2023-09-29T04:02:01.258Z,52
2023-09-29T04:08:07.264Z,51.7
2023-09-29T04:14:36.407Z,51.5
2023-09-29T04:20:42.778Z,51.5
2023-09-29T04:26:48.852Z,51.5
2023-09-29T04:32:55.193Z,51.5
2023-09-29T04:39:01.988Z,51.6
2023-09-29T04:45:08.573Z,51.5
2023-09-29T04:51:14.717Z,51.4
2023-09-29T04:57:21.135Z,51.4
2023-09-29T05:03:27.824Z,51.4
2023-09-29T05:09:34.120Z,51.5
2023-09-29T05:15:40.321Z,51.3
2023-09-29T05:21:46.701Z,51.4
2023-09-29T05:27:53.076Z,51.3
2023-09-29T05:33:59.064Z,51.4
2023-09-29T05:40:05.060Z,51.5
2023-09-29T05:46:11.292Z,51.4
2023-09-29T05:52:17.632Z,51.4
2023-09-29T05:58:24.043Z,51.6
2023-09-29T06:04:30.494Z,51.7
2023-09-29T06:10:36.394Z,51.7
2023-09-29T06:16:43.018Z,51.7
2023-09-29T06:22:49.391Z,51.8
2023-09-29T06:28:55.450Z,51.8
2023-09-29T06:35:01.364Z,51.5
2023-09-29T06:41:07.774Z,51.5
2023-09-29T06:47:14.368Z,51.5
2023-09-29T06:53:20.543Z,51.4
2023-09-29T06:59:27.043Z,51.5
2023-09-29T07:05:33.273Z,51.5
2023-09-29T07:11:39.236Z,51.4
2023-09-29T07:17:47.064Z,51.4
2023-09-29T07:23:55.691Z,51.4
2023-09-29T07:30:02.561Z,51.5
2023-09-29T07:36:08.678Z,51.4
2023-09-29T07:42:15.920Z,51.4
2023-09-29T07:48:23.560Z,51.4
2023-09-29T07:54:30.326Z,51.3
2023-09-29T08:00:36.942Z,51.3
2023-09-29T08:06:43.712Z,51.3
2023-09-29T08:12:50.317Z,51.4
2023-09-29T08:18:58.082Z,51.3
2023-09-29T08:25:04.733Z,52.1
2023-09-29T08:31:11.449Z,50.9
2023-09-29T08:37:17.925Z,51.5
2023-09-29T08:43:24.121Z,51.8
2023-09-29T08:49:52.236Z,51.5
2023-09-29T08:56:01.272Z,51.7
2023-09-29T09:02:07.483Z,51.6
2023-09-29T09:08:14.044Z,51.6
2023-09-29T09:14:20.437Z,51.5
2023-09-29T09:20:26.858Z,51.5
2023-09-29T09:26:33.036Z,52
2023-09-29T09:32:39.661Z,52
2023-09-29T09:38:46.242Z,52.1
2023-09-29T09:44:52.407Z,52.2
2023-09-29T09:50:59.438Z,52.2
2023-09-29T09:57:05.233Z,52.1
2023-09-29T10:03:11.870Z,52.2
2023-09-29T10:09:18.205Z,52.1
2023-09-29T10:15:24.783Z,52.1
2023-09-29T10:21:31.181Z,52.1
2023-09-29T10:27:37.163Z,52.1
2023-09-29T10:33:44.195Z,52.1
2023-09-29T10:39:50.563Z,52.1
2023-09-29T10:45:57.005Z,52.1
2023-09-29T10:52:03.361Z,52.1
2023-09-29T10:58:13.470Z,52
2023-09-29T11:04:19.959Z,52
2023-09-29T11:10:26.053Z,51.9
2023-09-29T11:16:32.391Z,51.9
2023-09-29T11:22:38.781Z,51.9
2023-09-29T11:28:44.975Z,51.8
2023-09-29T11:34:50.950Z,51.8
2023-09-29T11:40:57.356Z,51.9
2023-09-29T11:47:03.761Z,51.9
2023-09-29T11:53:09.966Z,52
2023-09-29T11:59:16.134Z,52
2023-09-29T12:05:22.315Z,52
2023-09-29T12:11:28.700Z,52
2023-09-29T12:17:35.137Z,52
2023-09-29T12:23:41.284Z,52
2023-09-29T12:29:47.705Z,52
2023-09-29T12:35:54.141Z,52
2023-09-29T12:42:00.298Z,52
2023-09-29T12:48:06.949Z,52.1
2023-09-29T12:54:13.470Z,52.1
2023-09-29T13:00:20.066Z,52.1
2023-09-29T13:06:27.264Z,52.1
2023-09-29T13:12:35.512Z,52
2023-09-29T13:18:42.181Z,52
2023-09-29T13:24:48.288Z,51.9
2023-09-29T13:30:58.901Z,51.9
2023-09-29T13:37:05.196Z,51.9
2023-09-29T13:43:11.367Z,51.8
2023-09-29T13:49:17.358Z,51.9
2023-09-29T13:55:23.755Z,51.9
2023-09-29T14:01:30.162Z,51.8
2023-09-29T14:07:36.530Z,51.8
2023-09-29T14:13:42.698Z,51.9
2023-09-29T14:19:49.094Z,52
2023-09-29T14:25:55.507Z,51.9
2023-09-29T14:32:01.692Z,52
2023-09-29T14:38:07.738Z,52
2023-09-29T14:44:13.647Z,52
2023-09-29T14:50:20.244Z,52
2023-09-29T14:56:26.648Z,52.1
2023-09-29T15:02:32.907Z,52.1
2023-09-29T15:08:39.023Z,52.1
2023-09-29T15:14:45.221Z,52.1
2023-09-29T15:20:51.626Z,52.1
2023-09-29T15:26:57.812Z,52.1
2023-09-29T15:33:04.194Z,52.1
2023-09-29T15:39:10.669Z,52.1
2023-09-29T15:45:17.233Z,52.1
2023-09-29T15:51:27.917Z,52.1
2023-09-29T15:57:34.569Z,52.2
2023-09-29T16:03:42.079Z,52.1
2023-09-29T16:09:48.678Z,52.1
2023-09-29T16:15:55.073Z,52.1
2023-09-29T16:22:01.455Z,52.1
2023-09-29T16:28:07.865Z,52.1
2023-09-29T16:34:13.901Z,52.1
2023-09-29T16:40:32.540Z,52.1
2023-09-29T16:46:38.919Z,52.2
2023-09-29T16:52:45.308Z,52.2
2023-09-29T16:58:51.714Z,52.2
2023-09-29T17:04:58.046Z,52.2
2023-09-29T17:11:04.498Z,52.2
2023-09-29T17:17:11.119Z,52.3
2023-09-29T17:23:17.697Z,52.3
2023-09-29T17:29:24.280Z,52.4
2023-09-29T17:35:30.474Z,52.4
2023-09-29T17:41:36.663Z,52.3
2023-09-29T17:47:42.874Z,52.3
2023-09-29T17:53:49.248Z,52.3
2023-09-29T17:59:55.660Z,52.3
2023-09-29T18:06:01.849Z,52.3
2023-09-29T18:12:08.304Z,52.3
2023-09-29T18:18:14.747Z,52.3
2023-09-29T18:24:21.273Z,52.2
2023-09-29T18:30:27.326Z,52.2
2023-09-29T18:36:33.616Z,52.2
2023-09-29T18:42:39.583Z,52.2
2023-09-29T18:48:46.017Z,52.2
2023-09-29T18:54:52.161Z,52.1
2023-09-29T19:00:58.546Z,52.1
2023-09-29T19:07:04.552Z,52.1
2023-09-29T19:13:10.311Z,52.1
2023-09-29T19:19:16.685Z,52.1
2023-09-29T19:25:22.596Z,52.1
2023-09-29T19:31:29.091Z,52.2
2023-09-29T19:37:35.652Z,52.2
2023-09-29T19:43:42.057Z,52.2
2023-09-29T19:49:48.665Z,52.2
2023-09-29T19:55:54.663Z,52.3
2023-09-29T20:02:01.073Z,52.3
2023-09-29T20:08:07.437Z,52.3
2023-09-29T20:14:13.817Z,52.4
2023-09-29T20:20:20.421Z,52.4
2023-09-29T20:26:26.626Z,52.6
2023-09-29T20:32:33.044Z,52.5
2023-09-29T20:38:39.203Z,52.8
2023-09-29T20:44:45.375Z,53
2023-09-29T20:50:51.556Z,52.9
2023-09-29T20:56:57.748Z,52.9
2023-09-29T21:03:04.434Z,52.8
2023-09-29T21:09:10.557Z,52.6
2023-09-29T21:15:17.099Z,52.8
2023-09-29T21:21:23.808Z,52.8
2023-09-29T21:27:29.965Z,52.8
2023-09-29T21:33:36.151Z,52.8
2023-09-29T21:39:42.559Z,52.9
2023-09-29T21:45:48.888Z,52.9
2023-09-29T21:51:55.705Z,52.9
2023-09-29T21:58:04.576Z,52.9
2023-09-29T22:04:11.641Z,52.9
2023-09-29T22:10:17.957Z,52.8
2023-09-29T22:16:24.332Z,52.7
2023-09-29T22:22:30.716Z,52.7
2023-09-29T22:28:37.116Z,52.7
2023-09-29T22:34:43.836Z,52.7
2023-09-29T22:40:50.234Z,52.6
2023-09-29T22:46:56.612Z,52.6
2023-09-29T22:53:02.870Z,52.5
2023-09-29T22:59:09.203Z,52.6
2023-09-29T23:05:15.587Z,52.5
2023-09-29T23:11:21.777Z,52.5
2023-09-29T23:17:28.194Z,52.5
2023-09-29T23:23:34.363Z,52.5
2023-09-29T23:29:40.937Z,52.6
2023-09-29T23:35:47.330Z,52.5
2023-09-29T23:41:53.399Z,52.5
2023-09-29T23:47:59.360Z,52.5
2023-09-29T23:54:05.947Z,52.5
